TimePDT,TemperatureF,Dew PointF,Humidity,Sea Level PressureIn,VisibilityMPH,Wind Direction,Wind SpeedMPH,Gust SpeedMPH,PrecipitationIn,Events,Conditions,WindDirDegrees,DateUTC
12:15 AM,39.2,39.2,100,30.46,2.5,Calm,Calm,-,0.00,,Scattered Clouds,0,2013-03-11 07:15:00
12:35 AM,39.2,39.2,100,30.46,0.5,Calm,Calm,-,0.00,,Mostly Cloudy,0,2013-03-11 07:35:00
12:55 AM,39.2,39.2,100,30.46,0.8,Calm,Calm,-,0.00,,Overcast,0,2013-03-11 07:55:00
1:35 AM,37.4,37.4,100,30.45,0.5,Calm,Calm,-,0.00,,Mostly Cloudy,0,2013-03-11 08:35:00
1:55 AM,37.4,37.4,100,30.45,0.5,Calm,Calm,-,0.00,,Overcast,0,2013-03-11 08:55:00
2:15 AM,37.4,37.4,100,30.46,2.5,Calm,Calm,-,0.00,,Overcast,0,2013-03-11 09:15:00
2:35 AM,39.2,39.2,100,30.47,4.0,Calm,Calm,-,0.00,,Overcast,0,2013-03-11 09:35:00
2:55 AM,39.2,39.2,100,30.46,2.5,Calm,Calm,-,0.00,,Overcast,0,2013-03-11 09:55:00
3:15 AM,39.2,39.2,100,30.46,2.5,Calm,Calm,-,0.00,,Overcast,0,2013-03-11 10:15:00
3:35 AM,39.2,39.2,100,30.46,2.5,Calm,Calm,-,0.00,,Overcast,0,2013-03-11 10:35:00
3:55 AM,39.2,39.2,100,30.45,2.5,Calm,Calm,-,0.00,,Overcast,0,2013-03-11 10:55:00
4:15 AM,39.2,39.2,100,30.45,3.0,Calm,Calm,-,0.00,,Overcast,0,2013-03-11 11:15:00
4:35 AM,41.0,41.0,100,30.45,2.5,Calm,Calm,-,0.00,,Overcast,0,2013-03-11 11:35:00
4:55 AM,41.0,41.0,100,30.44,3.0,Calm,Calm,-,0.00,,Overcast,0,2013-03-11 11:55:00
5:15 AM,41.0,41.0,100,30.44,2.5,NNE,3.5,-,0.00,,Overcast,30,2013-03-11 12:15:00
5:35 AM,41.0,41.0,100,30.44,5.0,NNE,3.5,-,0.00,,Overcast,30,2013-03-11 12:35:00
5:55 AM,41.0,41.0,100,30.44,4.0,Calm,Calm,-,0.00,,Overcast,0,2013-03-11 12:55:00
6:15 AM,41.0,41.0,100,30.44,4.0,Calm,Calm,-,0.00,,Overcast,0,2013-03-11 13:15:00
6:35 AM,39.2,39.2,100,30.44,5.0,Calm,Calm,-,0.00,,Overcast,0,2013-03-11 13:35:00
6:55 AM,39.2,39.2,100,30.44,5.0,Calm,Calm,-,0.00,,Overcast,0,2013-03-11 13:55:00
7:15 AM,39.2,39.2,100,30.43,6.0,Calm,Calm,-,0.00,,Mostly Cloudy,0,2013-03-11 14:15:00
7:35 AM,39.2,39.2,100,30.43,8.0,NE,4.6,-,0.00,,Mostly Cloudy,50,2013-03-11 14:35:00
7:55 AM,37.4,37.4,100,30.43,7.0,ENE,3.5,-,0.00,,Partly Cloudy,60,2013-03-11 14:55:00
8:15 AM,37.4,37.4,100,30.43,6.0,North,3.5,-,0.00,,Clear,360,2013-03-11 15:15:00
8:35 AM,39.2,39.2,100,30.43,9.0,Calm,Calm,-,0.00,,Clear,0,2013-03-11 15:35:00
8:55 AM,39.2,39.2,100,30.42,8.0,NE,5.8,-,0.00,,Clear,50,2013-03-11 15:55:00
9:15 AM,39.2,39.2,100,30.43,9.0,ENE,5.8,-,0.00,,Clear,60,2013-03-11 16:15:00
9:35 AM,41.0,41.0,100,30.43,10.0,ENE,4.6,-,0.00,,Clear,70,2013-03-11 16:35:00
9:55 AM,42.8,42.8,100,30.43,10.0,NE,5.8,-,0.00,,Clear,50,2013-03-11 16:55:00
10:15 AM,42.8,42.8,100,30.43,10.0,ENE,8.1,-,0.00,,Clear,60,2013-03-11 17:15:00
10:35 AM,44.6,44.6,100,30.42,10.0,NE,5.8,-,0.00,,Clear,50,2013-03-11 17:35:00
10:55 AM,44.6,44.6,100,30.41,10.0,NE,8.1,-,0.00,,Clear,50,2013-03-11 17:55:00
11:15 AM,46.4,44.6,93,30.41,10.0,NE,6.9,-,0.00,,Clear,50,2013-03-11 18:15:00
11:35 AM,46.4,42.8,87,30.41,10.0,ENE,6.9,-,0.00,,Clear,70,2013-03-11 18:35:00
11:55 AM,48.2,42.8,82,30.41,10.0,ENE,6.9,-,0.00,,Clear,70,2013-03-11 18:55:00
12:15 PM,48.2,39.2,71,30.40,10.0,Calm,Calm,-,0.00,,Clear,0,2013-03-11 19:15:00
12:35 PM,48.2,39.2,71,30.39,9.0,NNE,3.5,-,0.00,,Clear,20,2013-03-11 19:35:00
12:55 PM,50.0,39.2,66,30.39,10.0,ESE,3.5,-,0.00,,Clear,110,2013-03-11 19:55:00
1:15 PM,50.0,37.4,62,30.38,10.0,Calm,Calm,-,0.00,,Clear,0,2013-03-11 20:15:00
1:35 PM,50.0,35.6,58,30.37,10.0,Calm,Calm,-,0.00,,Partly Cloudy,0,2013-03-11 20:35:00
1:55 PM,51.8,37.4,58,30.36,10.0,East,4.6,-,0.00,,Scattered Clouds,100,2013-03-11 20:55:00
2:15 PM,51.8,35.6,54,30.35,10.0,WNW,3.5,-,0.00,,Mostly Cloudy,300,2013-03-11 21:15:00
2:35 PM,51.8,37.4,58,30.35,10.0,NE,3.5,-,0.00,,Mostly Cloudy,40,2013-03-11 21:35:00
2:55 PM,51.8,37.4,58,30.34,10.0,SSW,3.5,-,0.00,,Scattered Clouds,210,2013-03-11 21:55:00
3:15 PM,51.8,39.2,62,30.33,10.0,South,3.5,-,0.00,,Scattered Clouds,180,2013-03-11 22:15:00
3:35 PM,51.8,39.2,62,30.32,10.0,South,4.6,-,0.00,,Partly Cloudy,170,2013-03-11 22:35:00
3:55 PM,51.8,39.2,62,30.32,10.0,East,3.5,-,0.00,,Partly Cloudy,100,2013-03-11 22:55:00
4:15 PM,51.8,39.2,62,30.32,10.0,WNW,5.8,-,0.00,,Partly Cloudy,300,2013-03-11 23:15:00
4:35 PM,50.0,41.0,71,30.32,10.0,NNW,5.8,-,0.00,,Clear,340,2013-03-11 23:35:00
4:55 PM,50.0,39.2,66,30.31,10.0,NNE,4.6,-,0.00,,Partly Cloudy,20,2013-03-11 23:55:00
5:15 PM,48.2,39.2,71,30.30,10.0,North,5.8,-,0.00,,Clear,350,2013-03-12 00:15:00
5:35 PM,48.2,39.2,71,30.29,10.0,North,4.6,-,0.00,,Clear,10,2013-03-12 00:35:00
6:15 PM,48.2,39.2,71,30.28,10.0,North,3.5,-,0.00,,Partly Cloudy,350,2013-03-12 01:15:00
6:35 PM,48.2,39.2,71,30.27,10.0,Calm,Calm,-,0.00,,Partly Cloudy,0,2013-03-12 01:35:00
6:55 PM,48.2,39.2,71,30.26,10.0,Calm,Calm,-,0.00,,Scattered Clouds,0,2013-03-12 01:55:00
7:15 PM,48.2,42.8,82,30.25,9.0,Calm,Calm,-,0.00,,Mostly Cloudy,0,2013-03-12 02:15:00
7:35 PM,46.4,44.6,93,30.24,10.0,ENE,3.5,-,0.00,,Scattered Clouds,70,2013-03-12 02:35:00
7:55 PM,46.4,44.6,93,30.23,10.0,ENE,3.5,-,0.00,,Mostly Cloudy,70,2013-03-12 02:55:00
8:15 PM,46.4,46.4,100,30.22,10.0,East,4.6,-,0.00,,Overcast,80,2013-03-12 03:15:00
8:35 PM,46.4,46.4,100,30.21,10.0,ESE,3.5,-,0.00,,Overcast,120,2013-03-12 03:35:00
8:55 PM,46.4,46.4,100,30.21,10.0,ESE,5.8,-,0.00,,Overcast,110,2013-03-12 03:55:00
9:15 PM,46.4,46.4,100,30.20,9.0,East,4.6,-,0.00,,Overcast,90,2013-03-12 04:15:00
9:35 PM,46.4,46.4,100,30.20,7.0,ESE,8.1,-,0.00,,Overcast,110,2013-03-12 04:35:00
9:55 PM,46.4,46.4,100,30.20,4.0,ESE,10.4,-,0.01,,Overcast,110,2013-03-12 04:55:00
10:15 PM,46.4,46.4,100,30.19,5.0,ESE,11.5,-,0.01,,Overcast,110,2013-03-12 05:15:00
10:35 PM,46.4,46.4,100,30.18,9.0,ESE,11.5,-,0.01,,Overcast,110,2013-03-12 05:35:00
11:15 PM,46.4,46.4,100,30.16,5.0,ESE,9.2,-,0.01,,Overcast,120,2013-03-12 06:15:00
11:35 PM,46.4,46.4,100,30.15,6.0,ESE,11.5,-,0.02,,Overcast,110,2013-03-12 06:35:00
11:55 PM,46.4,46.4,100,30.15,10.0,East,11.5,-,0.03,,Overcast,100,2013-03-12 06:55:00